createdAt,value
2022-10-04T00:02:46.653Z,22.90
2022-10-04T00:07:52.229Z,22.90
2022-10-04T00:12:57.830Z,22.90
2022-10-04T00:18:01.898Z,22.90
2022-10-04T00:23:29.493Z,22.80
2022-10-04T00:28:42.974Z,22.80
2022-10-04T00:33:46.354Z,23.00
2022-10-04T00:39:03.641Z,22.90
2022-10-04T00:44:09.118Z,22.90
2022-10-04T00:49:13.414Z,22.90
2022-10-04T00:54:19.908Z,22.80
2022-10-04T00:59:28.521Z,22.80
2022-10-04T01:04:40.797Z,22.80
2022-10-04T01:09:47.793Z,22.80
2022-10-04T01:14:53.178Z,22.90
2022-10-04T01:19:56.080Z,22.80
2022-10-04T01:25:00.015Z,22.90
2022-10-04T01:30:03.305Z,22.80
2022-10-04T01:35:07.475Z,22.90
2022-10-04T01:40:11.910Z,22.90
2022-10-04T01:45:17.629Z,22.80
2022-10-04T01:50:21.550Z,22.80
2022-10-04T01:55:26.672Z,22.80
2022-10-04T02:00:29.455Z,22.80
2022-10-04T02:05:35.867Z,22.80
2022-10-04T02:10:43.567Z,22.80
2022-10-04T02:15:47.526Z,22.80
2022-10-04T02:20:51.255Z,22.80
2022-10-04T02:25:55.225Z,22.80
2022-10-04T02:31:17.421Z,22.90
2022-10-04T02:36:24.233Z,22.80
2022-10-04T02:41:31.874Z,22.90
2022-10-04T02:46:37.354Z,22.80
2022-10-04T02:51:41.927Z,22.80
2022-10-04T02:56:46.358Z,22.80
2022-10-04T03:01:51.468Z,22.80
2022-10-04T03:06:54.882Z,22.80
2022-10-04T03:11:59.007Z,22.80
2022-10-04T03:17:03.961Z,22.80
2022-10-04T03:22:08.467Z,22.80
2022-10-04T03:27:16.512Z,22.80
2022-10-04T03:32:20.196Z,22.80
2022-10-04T03:37:23.013Z,22.70
2022-10-04T03:42:28.598Z,22.90
2022-10-04T03:47:32.791Z,22.80
2022-10-04T03:52:37.989Z,22.80
2022-10-04T03:57:42.058Z,22.80
2022-10-04T04:02:46.582Z,22.80
2022-10-04T04:07:54.158Z,22.70
2022-10-04T04:13:01.726Z,22.80
2022-10-04T04:18:05.566Z,22.80
2022-10-04T04:23:14.510Z,22.80
2022-10-04T04:28:27.707Z,22.70
2022-10-04T04:33:32.229Z,22.80
2022-10-04T04:38:36.463Z,22.80
2022-10-04T04:43:45.495Z,22.80
2022-10-04T04:48:49.464Z,22.80
2022-10-04T04:53:53.273Z,22.80
2022-10-04T04:59:00.662Z,22.80
2022-10-04T05:04:07.128Z,22.80
2022-10-04T05:09:22.987Z,22.80
2022-10-04T05:14:29.403Z,22.80
2022-10-04T05:19:33.061Z,22.80
2022-10-04T05:24:37.823Z,22.80
2022-10-04T05:29:47.774Z,22.80
2022-10-04T05:34:50.976Z,22.70
2022-10-04T05:40:02.522Z,22.70
2022-10-04T05:45:14.470Z,22.70
2022-10-04T05:50:18.690Z,22.70
2022-10-04T05:55:27.819Z,22.80
2022-10-04T06:00:39.804Z,22.70
2022-10-04T06:05:45.116Z,22.70
2022-10-04T06:10:57.506Z,22.80
2022-10-04T06:16:16.654Z,22.70
2022-10-04T06:21:21.540Z,22.70
2022-10-04T06:26:26.523Z,22.70
2022-10-04T06:31:57.250Z,22.70
2022-10-04T06:37:11.390Z,22.70
2022-10-04T06:42:20.392Z,22.70
2022-10-04T06:47:30.799Z,22.80
2022-10-04T06:52:51.697Z,22.80
2022-10-04T06:58:08.602Z,20.20
2022-10-04T07:03:14.598Z,19.00
2022-10-04T07:08:31.093Z,18.80
2022-10-04T07:13:40.853Z,20.00
2022-10-04T07:18:45.185Z,21.20
2022-10-04T07:23:51.505Z,21.50
2022-10-04T07:29:14.767Z,21.80
2022-10-04T07:34:21.735Z,21.90
2022-10-04T07:39:28.289Z,22.10
2022-10-04T07:44:34.285Z,22.00
2022-10-04T07:49:41.060Z,22.10
2022-10-04T07:54:49.521Z,22.20
2022-10-04T07:59:56.022Z,22.10
2022-10-04T08:05:05.168Z,22.10
2022-10-04T08:10:13.488Z,22.20
2022-10-04T08:15:26.070Z,22.20
2022-10-04T08:20:37.668Z,22.30
2022-10-04T08:25:45.493Z,22.30
2022-10-04T08:30:56.176Z,22.30
2022-10-04T08:36:05.828Z,22.40
2022-10-04T08:41:26.338Z,22.50
2022-10-04T08:46:52.817Z,22.50
2022-10-04T08:52:25.458Z,22.50
2022-10-04T08:57:43.438Z,22.50
2022-10-04T09:03:24.687Z,22.60
2022-10-04T09:08:47.183Z,22.60
2022-10-04T09:14:00.545Z,22.50
2022-10-04T09:19:20.198Z,22.60
2022-10-04T09:24:49.698Z,22.60
2022-10-04T09:29:59.167Z,22.60
2022-10-04T09:35:38.526Z,22.60
2022-10-04T09:40:58.429Z,22.60
2022-10-04T09:46:12.129Z,22.60
2022-10-04T09:51:25.994Z,22.60
2022-10-04T09:56:37.880Z,22.60
2022-10-04T10:01:47.629Z,22.70
2022-10-04T10:07:05.161Z,22.80
2022-10-04T10:12:31.007Z,22.70
2022-10-04T10:17:37.209Z,22.70
2022-10-04T10:22:54.673Z,22.80
2022-10-04T10:28:06.947Z,22.70
2022-10-04T10:33:27.898Z,22.70
2022-10-04T10:38:43.362Z,22.70
2022-10-04T10:43:55.686Z,22.70
2022-10-04T10:49:05.830Z,22.80
2022-10-04T10:54:19.542Z,22.80
2022-10-04T10:59:41.102Z,22.70
2022-10-04T11:04:57.075Z,22.70
2022-10-04T11:10:20.889Z,22.80
2022-10-04T11:15:51.516Z,22.90
2022-10-04T11:21:18.186Z,22.90
2022-10-04T11:26:43.198Z,22.90
2022-10-04T11:31:59.137Z,22.80
2022-10-04T11:37:05.893Z,22.90
2022-10-04T11:42:18.980Z,22.80
2022-10-04T11:47:29.241Z,22.70
2022-10-04T11:52:42.014Z,22.90
2022-10-04T11:57:46.174Z,22.90
2022-10-04T12:03:02.616Z,23.00
2022-10-04T12:08:12.829Z,23.00
2022-10-04T12:13:31.295Z,23.00
2022-10-04T12:18:47.337Z,23.00
2022-10-04T12:23:58.661Z,22.90
2022-10-04T12:29:10.638Z,23.00
2022-10-04T12:34:18.226Z,23.10
2022-10-04T12:39:27.310Z,23.20
2022-10-04T12:44:35.919Z,23.30
2022-10-04T12:49:46.557Z,23.40
2022-10-04T12:54:53.936Z,23.30
2022-10-04T12:59:59.958Z,23.30
2022-10-04T13:05:06.275Z,23.20
2022-10-04T13:10:26.703Z,23.40
2022-10-04T13:17:25.385Z,23.40
2022-10-04T13:21:00.332Z,23.60
2022-10-04T13:26:15.297Z,23.50
2022-10-04T13:31:23.814Z,23.70
2022-10-04T13:36:30.339Z,23.60
2022-10-04T13:41:40.244Z,23.50
2022-10-04T13:46:47.552Z,23.50
2022-10-04T13:52:15.967Z,23.50
2022-10-04T13:57:21.326Z,23.50
2022-10-04T14:02:38.826Z,23.90
2022-10-04T14:07:51.322Z,24.00
2022-10-04T14:13:09.182Z,24.10
2022-10-04T14:18:42.510Z,24.30
2022-10-04T14:24:06.027Z,24.20
2022-10-04T14:29:29.325Z,24.30
2022-10-04T14:34:53.667Z,24.60
2022-10-04T14:40:06.449Z,24.60
2022-10-04T14:45:18.727Z,24.80
2022-10-04T14:50:24.814Z,24.80
2022-10-04T14:55:46.281Z,25.10
2022-10-04T15:01:22.527Z,25.40
2022-10-04T15:06:27.462Z,25.50
2022-10-04T15:11:39.134Z,25.70
2022-10-04T15:16:47.217Z,25.70
2022-10-04T15:21:53.329Z,26.00
2022-10-04T15:27:14.777Z,26.20
2022-10-04T15:32:24.026Z,26.30
2022-10-04T15:37:34.904Z,26.40
2022-10-04T15:42:38.237Z,26.30
2022-10-04T15:47:55.771Z,25.90
2022-10-04T15:53:08.592Z,25.60
2022-10-04T15:58:20.294Z,25.70
2022-10-04T16:03:33.998Z,25.50
2022-10-04T16:08:48.498Z,25.40
2022-10-04T16:14:10.794Z,25.30
2022-10-04T16:19:22.202Z,25.30
2022-10-04T16:24:38.582Z,25.00
2022-10-04T16:29:45.457Z,24.70
2022-10-04T16:34:51.065Z,24.50
2022-10-04T16:40:06.489Z,24.90
2022-10-04T16:45:33.027Z,25.00
2022-10-04T16:50:52.969Z,25.00
2022-10-04T16:55:57.636Z,25.00
2022-10-04T17:01:15.160Z,24.90
2022-10-04T17:06:26.464Z,24.90
2022-10-04T17:11:33.874Z,24.80
2022-10-04T17:16:38.589Z,24.70
2022-10-04T17:21:46.111Z,24.70
2022-10-04T17:26:54.635Z,24.60
2022-10-04T17:31:59.058Z,24.60
2022-10-04T17:37:05.690Z,24.50
2022-10-04T17:42:16.655Z,24.50
2022-10-04T17:47:24.279Z,24.40
2022-10-04T17:52:48.122Z,24.40
2022-10-04T17:57:55.181Z,24.40
2022-10-04T18:03:04.878Z,24.40
2022-10-04T18:08:14.456Z,24.30
2022-10-04T18:13:20.082Z,24.30
2022-10-04T18:18:25.726Z,24.30
2022-10-04T18:23:30.661Z,24.30
2022-10-04T18:28:34.721Z,24.30
2022-10-04T18:33:48.365Z,24.30
2022-10-04T18:39:03.279Z,24.20
2022-10-04T18:44:12.397Z,24.20
2022-10-04T18:49:16.334Z,24.10
2022-10-04T18:54:28.741Z,24.30
2022-10-04T18:59:53.082Z,24.20
2022-10-04T19:05:02.016Z,24.10
2022-10-04T19:10:12.377Z,24.10
2022-10-04T19:15:23.010Z,24.20
2022-10-04T19:20:29.747Z,24.10
2022-10-04T19:25:36.367Z,24.10
2022-10-04T19:30:49.314Z,24.10
2022-10-04T19:36:01.802Z,24.10
2022-10-04T19:41:09.631Z,24.10
2022-10-04T19:46:18.850Z,24.00
2022-10-04T19:51:23.844Z,24.00
2022-10-04T19:56:30.869Z,23.90
2022-10-04T20:01:36.302Z,24.00
2022-10-04T20:06:40.549Z,24.00
2022-10-04T20:11:49.564Z,23.90
2022-10-04T20:17:04.998Z,23.90
2022-10-04T20:22:26.360Z,23.80
2022-10-04T20:27:47.711Z,23.90
2022-10-04T20:32:55.427Z,23.90
2022-10-04T20:38:31.787Z,24.00
2022-10-04T20:43:53.496Z,23.90
2022-10-04T20:48:57.467Z,23.80
2022-10-04T20:54:03.360Z,23.80
2022-10-04T20:59:05.968Z,23.90
2022-10-04T21:04:16.437Z,23.80
2022-10-04T21:09:19.123Z,23.80
2022-10-04T21:14:22.862Z,23.90
2022-10-04T21:19:44.013Z,23.80
2022-10-04T21:24:54.600Z,23.70
2022-10-04T21:29:57.397Z,23.70
2022-10-04T21:35:01.350Z,23.70
2022-10-04T21:40:04.565Z,23.70
2022-10-04T21:45:07.558Z,23.80
2022-10-04T21:50:11.541Z,23.70
2022-10-04T21:55:14.126Z,23.60
2022-10-04T22:00:17.049Z,23.70
2022-10-04T22:05:20.957Z,23.70
2022-10-04T22:10:25.720Z,23.70
2022-10-04T22:15:29.030Z,23.70
2022-10-04T22:20:33.181Z,23.60
2022-10-04T22:25:35.796Z,23.60
2022-10-04T22:30:38.532Z,23.60
2022-10-04T22:35:42.449Z,23.60
2022-10-04T22:40:45.130Z,23.50
2022-10-04T22:45:47.735Z,23.60
2022-10-04T22:50:51.748Z,23.60
2022-10-04T22:55:56.138Z,23.50
2022-10-04T23:00:58.731Z,23.50
2022-10-04T23:06:03.738Z,23.50
2022-10-04T23:11:06.401Z,23.50
2022-10-04T23:16:11.921Z,23.50
2022-10-04T23:21:23.198Z,23.50
2022-10-04T23:26:29.055Z,23.40
2022-10-04T23:31:31.818Z,23.40
2022-10-04T23:36:36.412Z,23.50
2022-10-04T23:41:39.198Z,23.40
2022-10-04T23:46:41.784Z,23.40
2022-10-04T23:51:46.063Z,23.40
2022-10-04T23:56:48.950Z,23.40
